North Orange, Massachusetts
Current Conditions -  °F | °C
As of 3:52 PM on Monday 24 Nov 2014 (Local Time) from KORE Reporting Station
Overcast Overcast  
Wind Chill: 62°   Ceiling: 2100
Heat Index: 62°   Visibility: 10mi
Dew Point: 58°   Wind: 10mph
Humidity: 86%   Direction: 180°S
Pressure: 29.53"   Gusts: 21mph
Location:  42.614°N, 72.3011°W
Report Text: KORE 242052Z AUTO 18009G18KT 10SM OVC021 17/14 A2953 RMK AO2 SLP003 60000 T01670144 56022
Loading
Personal Weather Stations






























Interactive Weather Map New forecast layout! Learn more

10-Day Weather Forecast

Advertisements
Track Severe Weather on mobile